Time;durP1;ratioP1;P1;durP2;ratioP2;P2;SDS_P1;SDS_P2;PMS_P1;PMS_P2;Temp;Humidity;BMP_temperature;BMP_pressure;BME280_temperature;BME280_humidity;BME280_pressure;Samples;Min_cycle;Max_cycle;Signal;HPM_P1;HPM_P2
2023/10/14 00:01:03;;;;;;;17.33;5.80;;;17.70;99.90;;;;;;5086111;28;20035;-83
2023/10/14 00:03:32;;;;;;;11.85;5.70;;;17.90;99.90;;;;;;5069290;28;20038;-82
2023/10/14 00:06:18;;;;;;;14.13;5.03;;;17.90;99.90;;;;;;5076429;28;20372;-83
2023/10/14 00:09:32;;;;;;;17.40;6.53;;;17.90;99.90;;;;;;5084417;28;20111;-83
2023/10/14 00:11:40;;;;;;;19.17;5.82;;;17.90;99.90;;;;;;5072608;28;20040;-83
2023/10/14 00:14:14;;;;;;;15.55;6.25;;;17.90;99.90;;;;;;5062006;28;20114;-83
2023/10/14 00:16:51;;;;;;;16.70;5.80;;;18.00;99.90;;;;;;5082071;28;20035;-82
2023/10/14 00:19:22;;;;;;;18.25;5.80;;;18.00;99.90;;;;;;5066312;28;20032;-83
2023/10/14 00:21:49;;;;;;;16.20;6.78;;;17.90;99.90;;;;;;5083112;28;20028;-83
2023/10/14 00:24:25;;;;;;;17.13;5.95;;;17.90;99.90;;;;;;5053441;28;20028;-83
2023/10/14 00:26:52;;;;;;;24.27;12.73;;;17.90;99.90;;;;;;5068182;28;20039;-83
2023/10/14 00:29:21;;;;;;;29.75;12.88;;;17.90;99.90;;;;;;5081095;28;20026;-83
2023/10/14 00:31:49;;;;;;;22.30;11.95;;;17.90;99.90;;;;;;5062481;28;20022;-82
2023/10/14 00:34:15;;;;;;;18.45;8.77;;;18.00;99.90;;;;;;5065895;28;20382;-82
2023/10/14 00:36:42;;;;;;;21.70;7.40;;;18.10;99.90;;;;;;5081275;28;20035;-83
2023/10/14 00:39:23;;;;;;;18.10;7.20;;;18.20;99.90;;;;;;5067054;28;20036;-83
2023/10/14 00:41:50;;;;;;;16.08;6.60;;;18.30;99.90;;;;;;5097075;28;20046;-82
2023/10/14 00:44:17;;;;;;;16.17;7.15;;;18.30;99.90;;;;;;5068167;28;20043;-83
2023/10/14 00:46:53;;;;;;;18.95;7.63;;;18.40;99.90;;;;;;5067142;28;20047;-82
2023/10/14 00:49:34;;;;;;;14.23;6.20;;;18.50;99.90;;;;;;5061140;28;20486;-82
2023/10/14 00:52:09;;;;;;;18.00;7.22;;;18.40;99.90;;;;;;5065925;28;20020;-82
2023/10/14 00:55:12;;;;;;;18.58;6.63;;;18.50;99.90;;;;;;5066222;28;20032;-82
2023/10/14 00:57:27;;;;;;;19.55;6.65;;;18.40;99.90;;;;;;5084903;28;20040;-82
2023/10/14 00:59:55;;;;;;;11.45;6.47;;;18.50;99.90;;;;;;5066406;28;20038;-82
2023/10/14 01:02:31;;;;;;;12.40;6.57;;;18.50;99.90;;;;;;5095804;28;20035;-81
2023/10/14 01:05:06;;;;;;;24.67;6.82;;;18.50;99.90;;;;;;5105654;28;20063;-82
2023/10/14 01:07:31;;;;;;;17.42;7.05;;;18.50;99.90;;;;;;5082837;28;20031;-82
2023/10/14 01:10:00;;;;;;;12.15;6.90;;;18.50;99.90;;;;;;5076413;28;20024;-83
2023/10/14 01:15:13;;;;;;;18.13;7.18;;;18.50;99.90;;;;;;5086477;28;20027;-82
2023/10/14 01:17:41;;;;;;;19.58;6.88;;;18.50;99.90;;;;;;5062259;28;20497;-82
2023/10/14 01:22:40;;;;;;;21.75;7.82;;;18.50;99.90;;;;;;5079950;28;20092;-82
2023/10/14 01:25:12;;;;;;;21.33;7.93;;;18.50;99.90;;;;;;5082713;28;20066;-82
2023/10/14 01:27:38;;;;;;;;;;;18.50;99.90;;;;;;5064895;28;20113;-82
2023/10/14 01:30:10;;;;;;;21.02;8.10;;;18.50;99.90;;;;;;5082462;28;20049;-82
2023/10/14 01:38:05;;;;;;;15.77;7.53;;;18.40;99.90;;;;;;5056996;28;20036;-83
2023/10/14 01:40:40;;;;;;;18.27;7.05;;;18.50;99.90;;;;;;5098680;28;20065;-83
2023/10/14 01:43:06;;;;;;;19.98;8.35;;;18.40;99.90;;;;;;5092398;28;20475;-83
2023/10/14 01:45:50;;;;;;;16.80;8.05;;;18.50;99.90;;;;;;5096180;28;20050;-83
2023/10/14 01:48:21;;;;;;;18.00;7.57;;;18.60;99.90;;;;;;5087068;28;20059;-83
2023/10/14 01:50:51;;;;;;;23.20;8.23;;;18.60;99.90;;;;;;5063600;28;20028;-82
2023/10/14 01:53:31;;;;;;;22.17;7.90;;;18.50;99.90;;;;;;5120260;28;20032;-83
2023/10/14 01:56:00;;;;;;;15.40;7.40;;;18.50;99.90;;;;;;5098848;28;20058;-83
2023/10/14 02:01:15;;;;;;;25.55;8.50;;;18.50;99.90;;;;;;5084663;28;20028;-82
2023/10/14 02:03:49;;;;;;;21.73;7.93;;;18.50;99.90;;;;;;5061968;28;20036;-82
2023/10/14 02:06:20;;;;;;;21.98;7.97;;;18.60;99.90;;;;;;5070543;28;20032;-83
2023/10/14 02:08:46;;;;;;;;;;;18.50;99.90;;;;;;5065748;28;20036;-82
2023/10/14 02:15:00;;;;;;;25.92;8.48;;;18.60;99.90;;;;;;5094601;28;20027;-82
2023/10/14 02:17:25;;;;;;;25.90;8.30;;;18.60;99.90;;;;;;5084461;28;20393;-82
2023/10/14 02:19:54;;;;;;;29.92;9.80;;;18.60;99.90;;;;;;5081844;28;20032;-82
2023/10/14 02:22:23;;;;;;;18.30;8.48;;;18.60;99.90;;;;;;5085753;28;20034;-82
2023/10/14 02:24:50;;;;;;;19.60;8.30;;;18.60;99.90;;;;;;5083230;28;20078;-83
2023/10/14 02:27:15;;;;;;;16.98;7.93;;;18.60;99.90;;;;;;5122539;27;20118;-83
2023/10/14 02:29:47;;;;;;;25.83;8.15;;;18.50;99.90;;;;;;5084373;28;20080;-83
2023/10/14 02:32:13;;;;;;;26.75;8.82;;;18.40;99.90;;;;;;5112516;27;20024;-83
2023/10/14 02:34:43;;;;;;;25.15;8.18;;;18.50;99.90;;;;;;5123170;27;20486;-83
2023/10/14 02:37:13;;;;;;;23.50;8.82;;;18.50;99.90;;;;;;5083904;28;20106;-83
2023/10/14 02:39:39;;;;;;;19.13;8.20;;;18.50;99.90;;;;;;5081310;28;20702;-83
2023/10/14 02:44:32;;;;;;;25.60;8.57;;;18.40;99.90;;;;;;5113150;28;20398;-83
2023/10/14 02:47:04;;;;;;;25.42;8.82;;;18.50;99.90;;;;;;5121598;27;20462;-83
2023/10/14 02:49:40;;;;;;;27.90;8.82;;;18.50;99.90;;;;;;5084226;28;20387;-82
2023/10/14 02:52:09;;;;;;;23.05;9.00;;;18.50;99.90;;;;;;5062436;28;20032;-83
2023/10/14 02:54:36;;;;;;;24.55;8.27;;;18.50;99.90;;;;;;5087446;28;20027;-82
2023/10/14 02:59:48;;;;;;;26.95;8.85;;;18.50;99.90;;;;;;5092775;28;20043;-83
2023/10/14 03:05:50;;;;;;;29.42;9.20;;;18.60;99.90;;;;;;5097274;28;20035;-83
2023/10/14 03:07:50;;;;;;;20.92;9.23;;;18.60;99.90;;;;;;5066425;28;20059;-83
2023/10/14 03:10:27;;;;;;;26.52;9.27;;;18.60;99.90;;;;;;5098423;28;20112;-83
2023/10/14 03:12:53;;;;;;;27.33;8.80;;;18.60;99.90;;;;;;5097358;28;20733;-83
2023/10/14 03:15:21;;;;;;;26.60;8.45;;;18.60;99.90;;;;;;5101516;28;20735;-83
2023/10/14 03:18:01;;;;;;;22.80;7.90;;;18.50;99.90;;;;;;5084397;28;20071;-83
2023/10/14 03:23:25;;;;;;;31.35;8.23;;;18.50;99.90;;;;;;5116499;27;20074;-82
2023/10/14 03:25:53;;;;;;;29.15;9.48;;;18.50;99.90;;;;;;5107185;28;20036;-82
2023/10/14 03:28:20;;;;;;;28.50;8.88;;;18.50;99.90;;;;;;5084781;28;20020;-83
2023/10/14 03:30:54;;;;;;;20.35;8.05;;;18.40;99.90;;;;;;5082482;28;20070;-83
2023/10/14 03:33:22;;;;;;;26.40;10.70;;;18.40;99.90;;;;;;5080266;28;20032;-83
2023/10/14 03:36:03;;;;;;;26.83;9.95;;;18.00;99.90;;;;;;5068006;28;20647;-82
2023/10/14 03:41:17;;;;;;;23.20;9.73;;;17.10;99.90;;;;;;5121397;27;20039;-82
2023/10/14 03:46:29;;;;;;;30.33;10.85;;;17.00;99.90;;;;;;5116630;27;20020;-82
2023/10/14 03:48:55;;;;;;;32.50;10.60;;;17.00;99.90;;;;;;5098334;28;20028;-82
2023/10/14 03:51:25;;;;;;;25.17;9.65;;;16.90;99.90;;;;;;5084163;28;20076;-83
2023/10/14 03:54:41;;;;;;;20.88;9.30;;;17.00;99.90;;;;;;5080665;28;20462;-82
2023/10/14 03:57:07;;;;;;;25.63;7.63;;;17.00;99.90;;;;;;5086627;28;20038;-82
2023/10/14 03:59:34;;;;;;;22.30;6.68;;;17.00;99.90;;;;;;5086033;28;20085;-83
2023/10/14 04:02:05;;;;;;;14.43;6.22;;;17.20;99.90;;;;;;5089425;28;20036;-83
2023/10/14 04:04:31;;;;;;;;;;;17.20;99.90;;;;;;5075251;28;20031;-82
2023/10/14 04:09:50;;;;;;;19.48;6.68;;;17.10;99.90;;;;;;5109709;27;20430;-82
2023/10/14 04:15:46;;;;;;;16.85;6.85;;;17.00;99.90;;;;;;5099745;28;20466;-82
2023/10/14 04:17:55;;;;;;;18.88;6.47;;;16.90;99.90;;;;;;5077240;28;20490;-83
2023/10/14 04:20:30;;;;;;;14.93;6.53;;;16.80;99.90;;;;;;5080841;28;20288;-83
2023/10/14 04:22:56;;;;;;;18.52;6.95;;;16.70;99.90;;;;;;5079924;28;20065;-83
2023/10/14 04:25:27;;;;;;;19.00;7.10;;;16.60;99.90;;;;;;5098250;28;20111;-83
2023/10/14 04:31:40;;;;;;;16.65;6.10;;;16.40;99.90;;;;;;5098389;28;20104;-83
2023/10/14 04:34:07;;;;;;;18.50;6.85;;;16.40;99.90;;;;;;5095803;28;20032;-83
2023/10/14 04:39:45;;;;;;;24.13;11.27;;;16.20;99.90;;;;;;5079246;28;20024;-83
2023/10/14 04:41:55;;;;;;;27.13;11.40;;;16.20;99.90;;;;;;5067495;28;20028;-83
2023/10/14 04:44:37;;;;;;;23.27;12.20;;;16.10;99.90;;;;;;5080345;28;20028;-83
2023/10/14 04:47:04;;;;;;;19.58;8.98;;;16.10;99.90;;;;;;5079138;28;20713;-83
2023/10/14 04:49:42;;;;;;;15.70;7.53;;;16.00;99.90;;;;;;5117388;27;20016;-83
2023/10/14 04:52:08;;;;;;;31.85;14.52;;;16.00;99.90;;;;;;5080317;28;20036;-83
2023/10/14 04:54:34;;;;;;;27.90;11.18;;;16.10;99.90;;;;;;5081832;28;20067;-83
2023/10/14 04:57:22;;;;;;;18.48;7.55;;;16.00;99.90;;;;;;5084440;28;20051;-82
2023/10/14 04:59:53;;;;;;;12.48;7.03;;;16.00;99.90;;;;;;5050972;28;20028;-83
2023/10/14 05:02:21;;;;;;;20.42;7.38;;;15.90;99.90;;;;;;5082032;28;20027;-83
2023/10/14 05:04:53;;;;;;;14.85;6.43;;;15.80;99.90;;;;;;5082974;28;20040;-83
2023/10/14 05:07:19;;;;;;;18.17;6.22;;;15.80;99.90;;;;;;5077348;28;20101;-83
2023/10/14 05:09:56;;;;;;;17.27;6.95;;;15.70;99.90;;;;;;5079379;28;20475;-83
2023/10/14 05:12:24;;;;;;;11.35;6.13;;;15.60;99.90;;;;;;5083427;28;20028;-83
2023/10/14 05:14:52;;;;;;;23.13;6.88;;;15.50;99.90;;;;;;5079733;28;20031;-83
2023/10/14 05:17:18;;;;;;;15.85;5.88;;;15.40;99.90;;;;;;5084969;28;20379;-83
2023/10/14 05:19:47;;;;;;;15.77;5.60;;;15.30;99.90;;;;;;5120535;27;20035;-83
2023/10/14 05:22:23;;;;;;;14.80;5.82;;;15.30;99.90;;;;;;5112827;27;20024;-83
2023/10/14 05:25:02;;;;;;;16.80;6.32;;;15.20;99.90;;;;;;5100646;28;20039;-83
2023/10/14 05:27:45;;;;;;;23.05;5.47;;;15.20;99.90;;;;;;5074922;28;20031;-83
2023/10/14 05:30:21;;;;;;;17.10;5.60;;;15.20;99.90;;;;;;5077955;28;20023;-83
2023/10/14 05:32:48;;;;;;;15.50;6.07;;;15.10;99.90;;;;;;5074876;28;20028;-83
2023/10/14 05:35:14;;;;;;;16.80;5.60;;;15.00;99.90;;;;;;5077309;28;20032;-83
2023/10/14 05:37:42;;;;;;;15.55;4.97;;;14.90;99.90;;;;;;5079239;28;20119;-83
2023/10/14 05:40:15;;;;;;;23.55;5.68;;;14.80;99.90;;;;;;5082928;28;20478;-83
2023/10/14 05:42:45;;;;;;;20.38;5.25;;;14.80;99.90;;;;;;5076811;28;20024;-83
2023/10/14 05:45:11;;;;;;;15.95;5.30;;;14.80;99.90;;;;;;5073765;28;20040;-83
2023/10/14 05:47:39;;;;;;;10.73;4.68;;;14.70;99.90;;;;;;5077862;28;20119;-83
2023/10/14 05:50:14;;;;;;;13.38;5.10;;;14.70;99.90;;;;;;5094654;28;20027;-83
2023/10/14 05:52:43;;;;;;;17.77;5.53;;;14.80;99.90;;;;;;5041940;28;20040;-84
2023/10/14 05:55:09;;;;;;;11.82;4.80;;;14.80;99.90;;;;;;5074662;28;20093;-83
2023/10/14 05:57:39;;;;;;;17.67;5.13;;;14.80;99.90;;;;;;5074907;28;20038;-84
2023/10/14 06:00:20;;;;;;;14.85;4.55;;;14.80;99.90;;;;;;5068693;28;20050;-82
2023/10/14 06:02:48;;;;;;;15.35;5.00;;;14.80;99.90;;;;;;5072155;28;20518;-84
2023/10/14 06:05:16;;;;;;;11.77;4.50;;;14.80;99.90;;;;;;5074874;28;20052;-83
2023/10/14 06:07:46;;;;;;;14.68;4.45;;;14.80;99.90;;;;;;5098402;28;20368;-83
2023/10/14 06:10:23;;;;;;;13.65;4.57;;;14.80;99.90;;;;;;5063456;28;20032;-84
2023/10/14 06:12:52;;;;;;;14.15;4.50;;;14.80;99.90;;;;;;5069499;28;20772;-83
2023/10/14 06:15:19;;;;;;;14.15;4.30;;;14.80;99.90;;;;;;5074312;28;20103;-84
2023/10/14 06:17:46;;;;;;;16.35;4.85;;;14.80;99.90;;;;;;5115028;28;20035;-84
2023/10/14 06:20:16;;;;;;;11.18;4.45;;;14.90;99.90;;;;;;5076840;28;20082;-83
2023/10/14 06:22:43;;;;;;;11.13;5.22;;;14.90;99.90;;;;;;5080590;28;20479;-84
2023/10/14 06:25:15;;;;;;;14.30;4.95;;;14.90;99.90;;;;;;5092155;28;20123;-83
2023/10/14 06:27:45;;;;;;;14.02;4.45;;;14.90;99.90;;;;;;5070763;28;20518;-83
2023/10/14 06:30:19;;;;;;;10.10;4.25;;;14.90;99.90;;;;;;5088908;28;20044;-82
2023/10/14 06:32:47;;;;;;;15.93;4.15;;;14.90;99.90;;;;;;5050216;28;20031;-83
2023/10/14 06:35:15;;;;;;;13.68;4.57;;;14.90;99.90;;;;;;5071049;28;20395;-85
2023/10/14 06:37:43;;;;;;;24.05;4.63;;;14.90;99.90;;;;;;5107954;28;20028;-84
2023/10/14 06:40:13;;;;;;;15.40;4.13;;;15.00;99.90;;;;;;5106527;28;20056;-85
2023/10/14 06:42:43;;;;;;;10.17;4.27;;;15.00;99.90;;;;;;5055333;28;20028;-85
2023/10/14 06:45:13;;;;;;;8.90;4.30;;;15.00;99.90;;;;;;5060541;28;20035;-84
2023/10/14 06:47:45;;;;;;;9.88;3.88;;;15.10;99.90;;;;;;5089628;28;20028;-84
2023/10/14 06:50:12;;;;;;;14.80;4.05;;;15.10;99.90;;;;;;5115802;28;20063;-85
2023/10/14 06:52:39;;;;;;;12.23;4.00;;;15.20;99.90;;;;;;5110162;28;20531;-84
2023/10/14 06:55:07;;;;;;;7.45;3.65;;;15.20;99.90;;;;;;5083865;28;20668;-84
2023/10/14 06:57:36;;;;;;;14.32;4.15;;;15.10;99.90;;;;;;5075479;28;20077;-84
2023/10/14 07:00:08;;;;;;;8.77;3.92;;;15.10;99.90;;;;;;5100020;28;20051;-85
2023/10/14 07:02:35;;;;;;;13.18;4.72;;;15.20;99.90;;;;;;5072914;28;20020;-84
2023/10/14 07:05:02;;;;;;;10.57;3.97;;;15.20;99.90;;;;;;5089089;28;20581;-84
2023/10/14 07:07:28;;;;;;;13.73;3.95;;;15.10;99.90;;;;;;5076262;28;20020;-84
2023/10/14 07:09:54;;;;;;;11.57;3.75;;;15.00;99.90;;;;;;5096234;28;20875;-84
2023/10/14 07:12:21;;;;;;;8.32;3.40;;;14.80;99.90;;;;;;5105195;27;20033;-85
2023/10/14 07:14:47;;;;;;;11.35;2.83;;;14.60;99.90;;;;;;5073997;28;20058;-84
2023/10/14 07:17:25;;;;;;;8.93;2.33;;;14.40;99.90;;;;;;5071769;28;20028;-83
2023/10/14 07:19:51;;;;;;;11.90;2.78;;;14.30;99.90;;;;;;5107579;27;20028;-84
2023/10/14 07:22:20;;;;;;;4.82;2.00;;;14.10;99.90;;;;;;5090345;28;20037;-83
2023/10/14 07:24:47;;;;;;;3.03;1.90;;;14.10;99.90;;;;;;5063628;28;20429;-84
2023/10/14 07:27:17;;;;;;;4.03;1.83;;;14.00;99.90;;;;;;5080523;28;20032;-84
2023/10/14 07:29:45;;;;;;;4.00;2.10;;;13.90;99.90;;;;;;5107718;28;20035;-84
2023/10/14 07:32:15;;;;;;;5.45;2.28;;;13.90;99.90;;;;;;5077760;28;20777;-84
2023/10/14 07:34:42;;;;;;;3.80;1.90;;;13.90;99.90;;;;;;5079717;28;20016;-84
2023/10/14 07:37:09;;;;;;;4.80;1.67;;;14.00;99.90;;;;;;5093762;28;20079;-84
2023/10/14 07:39:36;;;;;;;2.85;2.10;;;14.00;99.90;;;;;;5081363;28;20035;-84
2023/10/14 07:42:09;;;;;;;7.13;4.18;;;13.90;99.90;;;;;;5061636;28;20070;-84
2023/10/14 07:44:35;;;;;;;10.15;5.97;;;13.90;99.90;;;;;;5066835;28;20031;-84
2023/10/14 07:47:05;;;;;;;5.45;2.78;;;13.90;99.90;;;;;;5079071;28;20029;-84
2023/10/14 07:49:33;;;;;;;7.35;2.20;;;13.80;99.90;;;;;;5094618;28;20379;-84
2023/10/14 07:52:00;;;;;;;4.47;1.88;;;13.70;99.90;;;;;;5101925;28;20090;-84
2023/10/14 07:54:29;;;;;;;9.85;2.35;;;13.60;99.90;;;;;;5073153;28;20024;-84
2023/10/14 07:56:55;;;;;;;6.53;2.72;;;13.50;99.90;;;;;;5111922;27;20028;-83
2023/10/14 07:59:21;;;;;;;6.80;2.50;;;13.60;99.90;;;;;;5062665;28;20034;-84
2023/10/14 08:01:47;;;;;;;3.65;3.00;;;13.50;99.90;;;;;;5080062;28;20050;-84
2023/10/14 08:04:16;;;;;;;8.07;2.72;;;13.50;99.90;;;;;;5051361;28;20048;-85
2023/10/14 08:06:43;;;;;;;99.57;53.25;;;13.40;99.90;;;;;;5101419;28;20024;-85
2023/10/14 08:09:23;;;;;;;6.07;4.15;;;13.20;99.90;;;;;;5066436;28;20375;-84
2023/10/14 08:11:50;;;;;;;2.25;1.52;;;12.90;99.90;;;;;;5072260;28;20494;-84
2023/10/14 08:14:16;;;;;;;5.07;2.65;;;12.70;99.90;;;;;;5089398;28;20040;-84
2023/10/14 08:16:41;;;;;;;2.63;2.20;;;12.50;99.90;;;;;;5058662;28;20021;-83
2023/10/14 08:19:10;;;;;;;1.48;0.80;;;12.40;99.90;;;;;;5095757;28;20051;-83
2023/10/14 08:21:36;;;;;;;0.60;0.60;;;12.40;99.90;;;;;;5070657;28;20032;-83
2023/10/14 08:24:05;;;;;;;1.17;0.80;;;12.40;99.90;;;;;;5079373;28;20118;-84
2023/10/14 08:26:34;;;;;;;3.72;1.50;;;12.40;99.90;;;;;;5061993;28;20039;-83
2023/10/14 08:29:01;;;;;;;3.55;1.60;;;12.40;99.90;;;;;;5081243;28;20041;-84
2023/10/14 08:31:27;;;;;;;1.27;0.68;;;12.40;99.90;;;;;;5104763;28;20063;-84
2023/10/14 08:33:52;;;;;;;2.22;0.93;;;12.40;99.90;;;;;;5086281;28;20028;-84
2023/10/14 08:36:18;;;;;;;1.27;0.30;;;12.50;99.90;;;;;;5124343;27;20178;-84
2023/10/14 08:38:44;;;;;;;0.55;0.52;;;12.70;99.90;;;;;;5075955;28;20482;-83
2023/10/14 08:41:14;;;;;;;1.75;0.40;;;13.00;99.90;;;;;;5072785;28;20063;-84
2023/10/14 08:43:44;;;;;;;1.02;0.70;;;13.20;99.90;;;;;;5065460;28;20506;-84
2023/10/14 08:46:12;;;;;;;8.90;5.35;;;13.40;99.90;;;;;;5066920;28;20031;-83
2023/10/14 08:48:39;;;;;;;0.63;0.57;;;13.70;99.90;;;;;;5092306;28;20032;-84
2023/10/14 08:51:08;;;;;;;1.45;0.57;;;13.70;99.90;;;;;;5063477;28;20051;-84
2023/10/14 08:53:40;;;;;;;4.47;1.40;;;13.70;99.90;;;;;;5076361;28;20043;-84
2023/10/14 08:56:07;;;;;;;0.65;0.57;;;13.50;99.90;;;;;;5119339;27;20522;-83
2023/10/14 08:58:36;;;;;;;1.92;1.17;;;13.30;99.90;;;;;;5080682;28;20024;-84
2023/10/14 09:01:05;;;;;;;4.38;2.72;;;13.10;99.90;;;;;;5067256;28;20015;-83
2023/10/14 09:03:31;;;;;;;8.93;3.28;;;13.00;99.90;;;;;;5067031;28;20024;-84
2023/10/14 09:05:57;;;;;;;1.33;0.68;;;13.00;99.90;;;;;;5065402;28;20030;-83
2023/10/14 09:08:25;;;;;;;2.15;1.48;;;12.90;99.90;;;;;;5060633;28;20078;-84
2023/10/14 09:10:50;;;;;;;6.95;4.55;;;13.00;99.90;;;;;;5091033;28;20074;-83
2023/10/14 09:13:20;;;;;;;5.90;4.05;;;13.00;99.90;;;;;;5064941;28;20430;-84
2023/10/14 09:15:47;;;;;;;3.05;1.75;;;13.00;99.90;;;;;;5088906;28;20069;-83
2023/10/14 09:18:18;;;;;;;4.25;2.20;;;13.10;99.90;;;;;;5078693;28;20475;-84
2023/10/14 09:20:45;;;;;;;1.25;0.75;;;13.30;99.90;;;;;;5112123;27;20032;-84
2023/10/14 09:23:33;;;;;;;1.08;0.82;;;13.40;99.90;;;;;;5065529;28;20510;-83
2023/10/14 09:26:00;;;;;;;1.23;0.90;;;13.60;99.90;;;;;;5089653;28;20028;-84
2023/10/14 09:28:34;;;;;;;1.60;0.80;;;13.70;99.90;;;;;;5080243;28;20118;-83
2023/10/14 09:31:02;;;;;;;3.22;2.35;;;13.80;99.90;;;;;;5088676;28;20028;-84
2023/10/14 09:33:34;;;;;;;2.60;1.25;;;14.00;99.90;;;;;;5064804;28;20019;-83
2023/10/14 09:36:06;;;;;;;0.60;0.60;;;14.10;99.90;;;;;;5087966;28;20658;-83
2023/10/14 09:38:35;;;;;;;2.83;1.00;;;14.10;99.90;;;;;;5054579;28;20064;-84
2023/10/14 09:41:03;;;;;;;1.88;1.10;;;13.90;99.90;;;;;;5085632;28;20082;-83
2023/10/14 09:43:30;;;;;;;2.22;1.17;;;13.70;99.90;;;;;;5076082;28;20043;-84
2023/10/14 09:45:57;;;;;;;1.23;0.70;;;13.60;99.90;;;;;;5072548;28;20032;-83
2023/10/14 09:48:31;;;;;;;7.35;1.40;;;13.60;99.90;;;;;;5090052;28;20027;-83
2023/10/14 09:51:02;;;;;;;1.63;1.33;;;13.70;99.90;;;;;;5069616;28;20024;-83
2023/10/14 09:53:31;;;;;;;5.03;1.40;;;13.60;99.90;;;;;;5076181;28;20024;-83
2023/10/14 09:56:07;;;;;;;2.17;1.88;;;13.70;99.90;;;;;;5073016;28;20811;-84
2023/10/14 09:58:43;;;;;;;4.38;2.45;;;13.60;99.90;;;;;;5115421;28;20043;-84
2023/10/14 10:01:18;;;;;;;3.75;1.75;;;13.40;99.90;;;;;;5057706;28;20384;-84
2023/10/14 10:04:08;;;;;;;1.30;1.20;;;13.20;99.90;;;;;;5107758;28;20043;-83
2023/10/14 10:07:07;;;;;;;5.43;2.60;;;13.10;99.90;;;;;;5072631;28;20391;-83
2023/10/14 10:09:49;;;;;;;1.50;1.40;;;13.00;99.90;;;;;;5071484;28;20058;-83
2023/10/14 10:12:20;;;;;;;;;;;13.00;99.90;;;;;;5058928;28;20024;-83
2023/10/14 10:14:47;;;;;;;4.35;1.70;;;13.10;99.90;;;;;;5073911;28;19912;-83
2023/10/14 10:17:15;;;;;;;3.20;1.67;;;13.20;99.90;;;;;;5085357;28;20032;-83
2023/10/14 10:20:08;;;;;;;11.45;5.03;;;13.40;99.90;;;;;;5099434;28;20043;-83
2023/10/14 10:22:56;;;;;;;25.60;9.73;;;13.70;99.90;;;;;;5068896;28;20086;-83
2023/10/14 10:25:50;;;;;;;2.40;1.70;;;13.60;99.90;;;;;;5080431;28;20035;-83
2023/10/14 10:28:27;;;;;;;3.70;1.60;;;13.50;99.90;;;;;;5101615;28;20044;-84
2023/10/14 10:31:03;;;;;;;2.65;1.45;;;13.70;99.90;;;;;;5100740;28;20016;-83
2023/10/14 10:34:01;;;;;;;2.97;1.45;;;14.00;99.90;;;;;;5081405;28;20028;-84
2023/10/14 10:36:31;;;;;;;6.32;1.90;;;14.20;99.90;;;;;;5093158;28;20081;-84
2023/10/14 10:39:19;;;;;;;2.88;1.40;;;14.30;99.90;;;;;;5074030;28;20032;-84
2023/10/14 10:41:50;;;;;;;4.40;1.63;;;14.20;99.90;;;;;;5071140;28;20035;-83
2023/10/14 10:44:18;;;;;;;5.40;1.58;;;14.30;99.90;;;;;;5083930;28;20043;-83
2023/10/14 10:46:50;;;;;;;3.00;1.38;;;14.20;99.90;;;;;;5092249;28;20051;-84
2023/10/14 10:49:48;;;;;;;5.95;1.75;;;14.00;99.90;;;;;;5073728;28;20036;-83
2023/10/14 10:52:14;;;;;;;4.70;1.92;;;13.90;99.90;;;;;;5071356;28;20039;-84
2023/10/14 10:54:42;;;;;;;5.15;1.73;;;13.70;99.90;;;;;;5118484;27;20027;-83
2023/10/14 10:57:08;;;;;;;4.43;1.63;;;13.80;99.90;;;;;;5068727;28;20081;-84
2023/10/14 10:59:37;;;;;;;7.20;2.03;;;14.00;99.90;;;;;;5110022;28;20027;-83
2023/10/14 11:02:08;;;;;;;4.07;1.70;;;14.10;99.90;;;;;;5061406;28;20024;-84
2023/10/14 11:04:34;;;;;;;5.03;1.75;;;14.10;99.90;;;;;;5103542;28;20118;-85
2023/10/14 11:07:00;;;;;;;6.65;2.10;;;14.20;99.90;;;;;;5097589;28;20115;-84
2023/10/14 11:09:30;;;;;;;7.20;2.03;;;14.00;99.90;;;;;;5085012;28;20391;-84
2023/10/14 11:12:03;;;;;;;7.07;2.10;;;14.10;99.90;;;;;;5066718;28;20032;-84
2023/10/14 11:14:29;;;;;;;4.05;1.70;;;14.50;99.90;;;;;;5066829;28;20032;-84
2023/10/14 11:16:58;;;;;;;6.00;2.60;;;14.60;99.90;;;;;;5085113;28;20090;-84
2023/10/14 11:19:32;;;;;;;8.05;2.17;;;14.80;99.90;;;;;;5069294;28;20036;-84
2023/10/14 11:21:59;;;;;;;7.70;2.10;;;14.50;99.90;;;;;;5084663;28;20071;-84
2023/10/14 11:24:30;;;;;;;11.77;2.35;;;14.60;99.90;;;;;;5114123;27;20032;-84
2023/10/14 11:27:11;;;;;;;;;;;14.60;99.90;;;;;;5106176;28;20065;-84
2023/10/14 11:29:40;;;;;;;6.60;1.90;;;15.30;99.90;;;;;;5098151;28;19908;-84
2023/10/14 11:32:09;;;;;;;11.63;2.20;;;16.20;99.90;;;;;;5059221;28;20058;-84
2023/10/14 11:34:35;;;;;;;13.23;2.30;;;16.00;99.90;;;;;;5057589;28;20028;-84
2023/10/14 11:37:01;;;;;;;7.55;2.20;;;15.50;99.90;;;;;;5107861;27;20421;-84
2023/10/14 11:39:28;;;;;;;8.05;2.58;;;15.00;99.90;;;;;;5061610;28;20123;-84
2023/10/14 11:41:54;;;;;;;7.80;1.95;;;15.30;99.90;;;;;;5093431;28;20373;-84
2023/10/14 11:44:19;;;;;;;6.80;2.45;;;15.50;99.90;;;;;;5059769;28;20039;-83
2023/10/14 11:46:46;;;;;;;5.18;2.00;;;15.50;99.90;;;;;;5065954;28;20092;-84
2023/10/14 11:49:13;;;;;;;6.72;1.83;;;16.10;99.90;;;;;;5057235;28;20390;-85
2023/10/14 11:51:43;;;;;;;13.43;3.22;;;15.90;99.90;;;;;;5083555;28;20024;-84
2023/10/14 11:54:12;;;;;;;9.45;2.20;;;15.50;99.90;;;;;;5078230;28;20058;-84
2023/10/14 11:56:40;;;;;;;5.72;1.80;;;15.30;99.90;;;;;;5077115;28;20123;-85
2023/10/14 11:59:06;;;;;;;10.10;2.45;;;14.90;99.90;;;;;;5072718;28;20260;-84
2023/10/14 12:01:35;;;;;;;6.53;1.98;;;14.60;99.90;;;;;;5078168;28;20100;-84
2023/10/14 12:04:01;;;;;;;3.78;1.45;;;14.60;99.90;;;;;;5089017;28;20048;-85
2023/10/14 12:06:30;;;;;;;11.98;6.05;;;14.50;99.90;;;;;;5074937;28;20055;-84
2023/10/14 12:08:56;;;;;;;10.13;4.63;;;14.80;99.90;;;;;;5103395;28;20608;-84
2023/10/14 12:11:22;;;;;;;11.48;6.68;;;15.40;99.90;;;;;;5053914;28;20020;-85
2023/10/14 12:13:51;;;;;;;3.90;2.30;;;16.30;99.90;;;;;;5113484;27;20529;-85
2023/10/14 12:16:17;;;;;;;22.35;11.35;;;17.20;99.90;;;;;;5057485;28;20040;-85
2023/10/14 12:18:45;;;;;;;17.15;7.55;;;17.60;99.90;;;;;;5088220;28;20107;-85
2023/10/14 12:21:11;;;;;;;10.85;5.97;;;17.30;99.90;;;;;;5066864;28;20036;-84
2023/10/14 12:23:38;;;;;;;10.13;4.10;;;17.00;99.90;;;;;;5076133;28;20950;-84
2023/10/14 12:26:04;;;;;;;21.30;11.25;;;16.90;99.90;;;;;;5108871;27;20071;-85
2023/10/14 12:28:32;;;;;;;11.80;6.95;;;17.20;99.90;;;;;;5100426;28;20475;-85
2023/10/14 12:31:00;;;;;;;8.10;2.28;;;17.80;99.90;;;;;;5095859;28;20037;-84
2023/10/14 12:33:31;;;;;;;6.63;1.77;;;18.10;99.90;;;;;;5049689;28;20078;-85
2023/10/14 12:35:57;;;;;;;;;;;18.30;99.90;;;;;;5056600;28;20035;-85
2023/10/14 12:38:26;;;;;;;7.47;2.05;;;18.00;99.90;;;;;;5072161;28;19916;-85
2023/10/14 12:40:53;;;;;;;13.65;2.40;;;17.10;99.90;;;;;;5070509;28;20062;-84
2023/10/14 12:43:39;;;;;;;11.35;2.80;;;16.30;99.90;;;;;;5098197;28;20478;-85
2023/10/14 12:46:31;;;;;;;8.85;3.10;;;16.20;99.90;;;;;;5076533;28;20039;-85
2023/10/14 12:49:02;;;;;;;7.97;2.78;;;15.90;99.90;;;;;;5088546;28;20055;-85
2023/10/14 12:51:31;;;;;;;9.65;2.88;;;15.80;99.90;;;;;;5087161;28;20390;-85
2023/10/14 12:54:02;;;;;;;14.40;5.93;;;16.10;99.90;;;;;;5073357;28;20035;-85
2023/10/14 12:56:28;;;;;;;11.75;5.10;;;16.30;99.90;;;;;;5081234;28;20028;-85
2023/10/14 12:58:57;;;;;;;16.40;4.03;;;16.40;99.90;;;;;;5106728;28;20032;-86
2023/10/14 13:01:23;;;;;;;8.23;2.35;;;16.40;99.90;;;;;;5062919;28;20422;-85
2023/10/14 13:03:53;;;;;;;7.88;3.28;;;16.60;99.90;;;;;;5083217;28;20025;-85
2023/10/14 13:06:23;;;;;;;7.10;2.20;;;16.50;99.90;;;;;;5073012;28;20056;-85
2023/10/14 13:08:54;;;;;;;10.45;2.70;;;16.20;99.90;;;;;;5092781;28;20028;-85
2023/10/14 13:11:29;;;;;;;6.47;2.47;;;15.80;99.90;;;;;;5055649;28;20652;-86
2023/10/14 13:14:26;;;;;;;7.20;2.50;;;15.00;99.90;;;;;;5102954;28;20522;-85
2023/10/14 13:17:31;;;;;;;15.88;4.43;;;14.30;99.90;;;;;;5069962;28;20111;-84
2023/10/14 13:19:57;;;;;;;9.23;3.38;;;13.90;99.90;;;;;;5085587;28;20032;-84
2023/10/14 13:22:24;;;;;;;9.43;2.42;;;13.70;99.90;;;;;;5080644;28;20053;-84
2023/10/14 13:24:49;;;;;;;6.35;2.00;;;13.50;99.90;;;;;;5096077;28;20490;-85
2023/10/14 13:27:15;;;;;;;11.95;4.47;;;13.50;99.90;;;;;;5105490;27;20027;-85
2023/10/14 13:29:41;;;;;;;4.25;2.30;;;13.50;99.90;;;;;;5106202;27;20077;-85
2023/10/14 13:32:08;;;;;;;7.60;2.38;;;13.60;99.90;;;;;;5060940;28;20047;-84
2023/10/14 13:34:33;;;;;;;9.57;1.90;;;13.70;99.90;;;;;;5061555;28;20031;-85
2023/10/14 13:37:30;;;;;;;10.55;2.92;;;13.70;99.90;;;;;;5111233;27;20342;-84
2023/10/14 13:39:56;;;;;;;7.60;2.47;;;13.50;99.90;;;;;;5076255;28;20154;-84
2023/10/14 13:42:23;;;;;;;9.45;2.25;;;13.20;99.90;;;;;;5072545;28;20119;-84
2023/10/14 13:44:49;;;;;;;9.30;3.17;;;13.10;99.90;;;;;;5076031;28;20016;-84
2023/10/14 13:47:17;;;;;;;10.77;2.85;;;13.20;99.90;;;;;;5092811;28;20020;-85